Time;durP1;ratioP1;P1;durP2;ratioP2;P2;SDS_P1;SDS_P2;PMS_P1;PMS_P2;Temp;Humidity;BMP_temperature;BMP_pressure;BME280_temperature;BME280_humidity;BME280_pressure;Samples;Min_cycle;Max_cycle;Signal;HPM_P1;HPM_P2
2021/03/31 00:03:45;;;;;;;2.38;0.80;;;8.00;92.50;;;;;;10376159;28;20056;-63
2021/03/31 00:08:46;;;;;;;4.63;0.80;;;8.00;92.10;;;;;;10374537;28;20053;-64
2021/03/31 00:13:48;;;;;;;4.57;1.10;;;7.90;93.00;;;;;;10376055;28;20085;-64
2021/03/31 00:18:50;;;;;;;2.20;0.70;;;7.80;92.60;;;;;;10369724;28;21022;-64
2021/03/31 00:23:52;;;;;;;3.67;0.90;;;7.80;93.50;;;;;;10371448;28;20095;-63
2021/03/31 00:28:53;;;;;;;2.83;1.05;;;7.70;94.40;;;;;;10353807;28;21093;-63
2021/03/31 00:33:54;;;;;;;4.72;1.60;;;7.60;95.10;;;;;;10375239;28;20045;-63
2021/03/31 00:38:55;;;;;;;3.72;0.77;;;7.60;96.50;;;;;;10374673;28;20041;-64
2021/03/31 00:43:57;;;;;;;2.30;0.77;;;7.60;97.10;;;;;;10373197;28;20699;-62
2021/03/31 00:48:58;;;;;;;4.63;1.02;;;7.50;97.20;;;;;;10375205;28;20831;-62
2021/03/31 00:53:59;;;;;;;4.03;1.15;;;7.40;99.30;;;;;;10374498;28;20191;-63
2021/03/31 00:59:00;;;;;;;6.40;1.42;;;7.30;98.30;;;;;;10376102;28;20050;-63
2021/03/31 01:04:02;;;;;;;3.30;0.93;;;7.30;99.80;;;;;;10374664;28;20179;-63
2021/03/31 01:09:04;;;;;;;2.35;1.00;;;7.30;98.90;;;;;;10373796;28;20407;-63
2021/03/31 01:14:22;;;;;;;3.05;0.98;;;7.20;99.20;;;;;;10380868;28;20053;-63
2021/03/31 01:19:57;;;;;;;5.22;1.17;;;7.10;99.80;;;;;;10337647;28;20083;-63
2021/03/31 01:25:31;;;;;;;2.70;1.52;;;7.10;99.90;;;;;;10333135;28;20606;-63
2021/03/31 01:31:05;;;;;;;2.28;1.45;;;7.00;99.90;;;;;;10276590;28;20053;-63
2021/03/31 01:36:07;;;;;;;4.45;1.17;;;7.00;99.90;;;;;;10309069;28;20072;-62
2021/03/31 01:41:12;;;;;;;3.40;1.45;;;6.90;99.90;;;;;;10379904;28;20049;-62
2021/03/31 01:46:13;;;;;;;14.45;6.72;;;6.90;99.90;;;;;;10380351;28;20042;-63
2021/03/31 01:51:17;;;;;;;40.05;20.40;;;6.80;99.90;;;;;;10380807;28;20072;-63
2021/03/31 01:56:19;;;;;;;21.13;11.30;;;6.70;99.90;;;;;;10379696;28;20053;-63
2021/03/31 02:01:21;;;;;;;6.00;2.80;;;6.70;99.90;;;;;;10360714;28;20187;-63
2021/03/31 02:06:29;;;;;;;3.50;2.17;;;6.60;99.90;;;;;;10377604;28;20041;-62
2021/03/31 02:11:31;;;;;;;4.30;1.97;;;6.60;99.90;;;;;;10383664;28;20049;-62
2021/03/31 02:16:35;;;;;;;4.85;1.50;;;6.60;99.90;;;;;;10384410;28;20061;-62
2021/03/31 02:21:37;;;;;;;4.75;1.70;;;6.50;99.90;;;;;;10381849;28;20057;-62
2021/03/31 02:26:39;;;;;;;2.97;2.05;;;6.50;99.90;;;;;;10377342;28;20073;-63
2021/03/31 02:31:42;;;;;;;6.10;1.83;;;6.40;99.90;;;;;;10383174;28;20088;-63
2021/03/31 02:36:45;;;;;;;3.08;1.90;;;6.40;99.90;;;;;;10377848;28;20061;-64
2021/03/31 02:41:54;;;;;;;7.10;1.60;;;6.40;99.90;;;;;;10379163;28;20507;-63
2021/03/31 02:46:58;;;;;;;6.68;1.98;;;6.30;99.90;;;;;;10382080;28;20064;-64
2021/03/31 02:52:00;;;;;;;4.25;2.20;;;6.30;99.90;;;;;;10379729;28;20053;-63
2021/03/31 02:57:02;;;;;;;2.00;1.23;;;6.30;99.90;;;;;;10378124;28;20049;-63
2021/03/31 03:02:03;;;;;;;2.58;1.25;;;6.20;99.90;;;;;;10379845;28;20049;-63
2021/03/31 03:07:06;;;;;;;5.00;1.40;;;6.10;99.90;;;;;;10378560;28;20516;-63
2021/03/31 03:12:11;;;;;;;2.38;1.67;;;6.10;99.90;;;;;;10376526;28;20049;-63
2021/03/31 03:17:12;;;;;;;3.53;1.70;;;6.10;99.90;;;;;;10378218;28;20049;-63
2021/03/31 03:22:14;;;;;;;2.40;1.27;;;6.00;99.90;;;;;;10380153;28;20065;-63
2021/03/31 03:27:17;;;;;;;2.92;1.38;;;5.90;99.90;;;;;;10377179;28;20049;-63
2021/03/31 03:32:21;;;;;;;2.65;1.80;;;5.90;99.90;;;;;;10375665;28;20053;-63
2021/03/31 03:37:22;;;;;;;5.97;1.50;;;5.80;99.90;;;;;;10379469;28;20057;-63
2021/03/31 03:42:24;;;;;;;3.50;1.45;;;5.70;99.90;;;;;;10375335;28;20107;-63
2021/03/31 03:47:26;;;;;;;4.53;1.83;;;5.70;99.90;;;;;;10377849;28;20053;-63
2021/03/31 03:52:28;;;;;;;5.43;2.03;;;5.60;99.90;;;;;;10377997;28;20115;-63
2021/03/31 03:57:30;;;;;;;4.50;2.20;;;5.60;99.90;;;;;;10374412;28;20049;-63
2021/03/31 04:02:31;;;;;;;5.93;1.77;;;5.50;99.90;;;;;;10378218;28;20045;-63
2021/03/31 04:07:32;;;;;;;7.50;2.03;;;5.40;99.90;;;;;;10375745;28;20053;-63
2021/03/31 04:12:35;;;;;;;4.97;2.00;;;5.40;99.90;;;;;;10377386;28;20080;-63
2021/03/31 04:17:42;;;;;;;5.57;2.25;;;5.40;99.90;;;;;;10376450;28;20050;-63
2021/03/31 04:22:46;;;;;;;5.50;1.77;;;5.30;99.90;;;;;;10374042;28;20049;-63
2021/03/31 04:27:50;;;;;;;5.75;2.45;;;5.30;99.90;;;;;;10374141;28;20056;-64
2021/03/31 04:32:52;;;;;;;3.72;2.03;;;5.30;99.90;;;;;;10373453;28;20128;-63
2021/03/31 04:38:09;;;;;;;4.18;1.92;;;5.30;99.90;;;;;;10373160;28;20380;-62
2021/03/31 04:43:11;;;;;;;7.07;2.05;;;5.30;99.90;;;;;;10372788;28;20049;-63
2021/03/31 04:48:12;;;;;;;8.20;2.15;;;5.20;99.90;;;;;;10376073;28;20111;-63
2021/03/31 04:53:13;;;;;;;5.60;2.75;;;5.20;99.90;;;;;;10372476;28;20057;-63
2021/03/31 04:58:15;;;;;;;4.75;2.45;;;5.20;99.90;;;;;;10355287;28;20052;-63
2021/03/31 05:03:16;;;;;;;5.22;1.98;;;5.20;99.90;;;;;;10358709;28;20143;-64
2021/03/31 05:08:18;;;;;;;6.88;2.03;;;5.20;99.90;;;;;;10374195;28;20041;-63
2021/03/31 05:13:19;;;;;;;6.68;2.00;;;5.20;99.90;;;;;;10376084;28;20447;-63
2021/03/31 05:18:20;;;;;;;4.30;2.90;;;5.20;99.90;;;;;;10376630;28;20083;-63
2021/03/31 05:23:21;;;;;;;5.97;2.80;;;5.10;99.90;;;;;;10373462;28;20045;-63
2021/03/31 05:28:22;;;;;;;7.70;3.72;;;5.20;99.90;;;;;;10374276;28;20476;-63
2021/03/31 05:33:24;;;;;;;7.00;3.78;;;5.20;99.90;;;;;;10358031;28;20041;-62
2021/03/31 05:38:25;;;;;;;12.75;4.45;;;5.20;99.90;;;;;;10373987;28;20073;-62
2021/03/31 05:43:26;;;;;;;11.93;3.58;;;5.30;99.90;;;;;;10374715;28;20053;-63
2021/03/31 05:48:28;;;;;;;5.95;3.58;;;5.30;99.90;;;;;;10373110;28;20464;-62
2021/03/31 05:53:29;;;;;;;8.18;2.78;;;5.30;99.90;;;;;;10369286;28;20451;-62
2021/03/31 05:58:30;;;;;;;6.15;3.85;;;5.40;99.90;;;;;;10371812;28;20111;-63
2021/03/31 06:03:32;;;;;;;8.77;3.85;;;5.50;99.90;;;;;;10380073;28;20057;-62
2021/03/31 06:08:33;;;;;;;6.30;2.78;;;5.60;99.90;;;;;;10367274;28;20060;-63
2021/03/31 06:13:57;;;;;;;10.60;3.38;;;5.70;99.90;;;;;;10378421;28;20793;-62
2021/03/31 06:19:18;;;;;;;9.52;3.13;;;5.90;99.90;;;;;;10330035;28;20052;-63
2021/03/31 06:24:33;;;;;;;14.43;3.42;;;6.10;99.90;;;;;;10327626;28;20057;-63
2021/03/31 06:29:44;;;;;;;10.50;3.13;;;6.30;99.90;;;;;;10374650;28;20051;-63
2021/03/31 06:34:53;;;;;;;12.65;3.22;;;6.50;99.90;;;;;;10373289;28;20053;-62
2021/03/31 06:39:54;;;;;;;5.60;3.20;;;6.70;99.90;;;;;;10377486;28;20053;-62
2021/03/31 06:45:09;;;;;;;9.80;3.38;;;6.90;99.90;;;;;;10362567;28;20053;-62
2021/03/31 06:50:14;;;;;;;9.45;4.10;;;7.10;99.90;;;;;;10372256;28;20042;-62
2021/03/31 06:55:15;;;;;;;16.15;3.72;;;7.30;99.90;;;;;;10372861;28;20129;-62
2021/03/31 07:00:28;;;;;;;5.40;4.18;;;7.50;99.90;;;;;;10377821;28;20089;-63
2021/03/31 07:05:42;;;;;;;5.22;3.28;;;7.60;99.90;;;;;;10379598;28;20045;-64
2021/03/31 07:10:47;;;;;;;11.75;3.20;;;7.90;99.90;;;;;;10376582;28;20156;-63
2021/03/31 07:15:49;;;;;;;4.40;2.70;;;8.00;99.90;;;;;;10379848;28;20457;-63
2021/03/31 07:20:50;;;;;;;9.85;3.65;;;8.20;99.90;;;;;;10377204;28;20114;-62
2021/03/31 07:25:54;;;;;;;4.10;2.72;;;8.50;99.90;;;;;;10379844;28;20493;-62
2021/03/31 07:30:57;;;;;;;7.55;4.07;;;8.80;99.90;;;;;;10377394;28;20049;-62
2021/03/31 07:36:00;;;;;;;6.85;4.18;;;9.00;99.90;;;;;;10376410;28;20064;-62
2021/03/31 07:41:02;;;;;;;6.22;4.13;;;9.20;99.90;;;;;;10375570;28;20037;-62
2021/03/31 07:46:14;;;;;;;7.28;3.47;;;9.50;99.90;;;;;;10375902;28;20096;-62
2021/03/31 07:51:17;;;;;;;6.15;2.97;;;9.80;97.70;;;;;;10379542;28;20111;-62
2021/03/31 07:56:31;;;;;;;8.95;4.10;;;10.10;96.30;;;;;;10382940;28;20049;-63
2021/03/31 08:01:35;;;;;;;5.70;3.25;;;10.30;93.30;;;;;;10379201;28;20046;-62
2021/03/31 08:06:41;;;;;;;9.15;3.20;;;10.40;90.60;;;;;;10380865;28;20056;-62
2021/03/31 08:11:46;;;;;;;9.57;4.57;;;10.70;86.50;;;;;;10374498;28;20060;-62
2021/03/31 08:16:49;;;;;;;10.63;3.78;;;10.90;86.70;;;;;;10356083;28;20068;-62
2021/03/31 08:21:53;;;;;;;10.23;3.72;;;11.20;84.20;;;;;;10376703;28;20060;-62
2021/03/31 08:26:58;;;;;;;12.43;4.20;;;11.60;81.00;;;;;;10372571;28;20052;-62
2021/03/31 08:32:06;;;;;;;11.38;4.22;;;11.80;79.60;;;;;;10374841;28;20055;-62
2021/03/31 08:37:17;;;;;;;14.40;4.80;;;12.10;77.00;;;;;;10373155;28;20103;-61
2021/03/31 08:42:19;;;;;;;12.18;4.38;;;12.50;76.10;;;;;;10321614;28;20038;-62
2021/03/31 08:47:23;;;;;;;15.98;5.05;;;12.60;77.00;;;;;;10375042;28;20050;-61
2021/03/31 08:52:31;;;;;;;15.15;5.13;;;12.80;76.20;;;;;;10373865;28;20045;-62
2021/03/31 08:57:33;;;;;;;11.30;5.22;;;13.10;74.70;;;;;;10373964;28;20049;-62
2021/03/31 09:02:36;;;;;;;11.05;4.60;;;13.40;73.80;;;;;;10372562;28;21625;-62
2021/03/31 09:07:37;;;;;;;10.13;4.75;;;13.60;73.70;;;;;;10375195;28;20041;-61
2021/03/31 09:12:39;;;;;;;13.70;5.38;;;14.00;73.20;;;;;;10369861;28;20054;-62
2021/03/31 09:17:41;;;;;;;11.00;4.43;;;14.20;71.90;;;;;;10356664;28;20056;-62
2021/03/31 09:22:42;;;;;;;13.90;6.40;;;14.50;70.90;;;;;;10370595;28;20111;-62
2021/03/31 09:27:44;;;;;;;13.80;5.45;;;14.80;70.10;;;;;;10372945;28;20060;-61
2021/03/31 09:32:54;;;;;;;9.43;5.80;;;15.10;67.70;;;;;;10373811;28;20489;-62
2021/03/31 09:37:57;;;;;;;13.57;5.35;;;15.50;66.40;;;;;;10381273;28;20061;-62
2021/03/31 09:43:10;;;;;;;14.00;5.88;;;15.70;65.70;;;;;;10375666;28;20053;-62
2021/03/31 09:48:12;;;;;;;24.25;6.88;;;16.10;63.40;;;;;;10378405;28;20216;-62
2021/03/31 09:53:14;;;;;;;17.77;7.30;;;16.40;63.00;;;;;;10189112;28;20045;-62
2021/03/31 09:58:22;;;;;;;18.90;6.28;;;16.90;60.70;;;;;;10382652;28;20045;-62
2021/03/31 10:03:25;;;;;;;13.13;6.20;;;17.30;59.50;;;;;;10378881;28;20068;-62
2021/03/31 10:08:26;;;;;;;13.80;5.75;;;17.70;57.20;;;;;;10382180;28;20088;-63
2021/03/31 10:13:35;;;;;;;15.25;8.23;;;18.00;55.70;;;;;;10381396;28;20148;-62
2021/03/31 10:18:36;;;;;;;19.20;7.35;;;18.40;54.70;;;;;;10379078;28;20124;-62
2021/03/31 10:23:44;;;;;;;14.90;8.80;;;19.40;52.70;;;;;;10380008;28;20055;-62
2021/03/31 10:29:20;;;;;;;18.02;9.23;;;20.60;48.80;;;;;;10380706;28;20080;-63
2021/03/31 10:34:47;;;;;;;18.92;9.75;;;22.30;45.60;;;;;;10271826;28;20875;-63
2021/03/31 10:50:23;;;;;;;17.63;9.23;;;25.70;39.70;;;;;;10327327;28;20052;-64
2021/03/31 10:55:25;;;;;;;15.65;8.93;;;25.20;37.60;;;;;;10360956;28;20107;-63
2021/03/31 11:00:26;;;;;;;19.70;9.68;;;24.90;38.10;;;;;;10373963;28;20053;-64
2021/03/31 11:05:31;;;;;;;15.07;8.90;;;23.90;39.30;;;;;;10375093;28;20076;-64
2021/03/31 11:10:32;;;;;;;16.85;8.98;;;25.30;36.90;;;;;;10379043;28;20049;-62
2021/03/31 11:15:34;;;;;;;17.00;9.02;;;26.60;36.50;;;;;;10379052;28;20076;-63
2021/03/31 11:25:48;;;;;;;17.90;8.48;;;27.60;36.20;;;;;;10381183;28;20049;-63
2021/03/31 11:30:50;;;;;;;15.13;8.75;;;28.40;34.50;;;;;;10382739;28;20081;-63
2021/03/31 11:35:52;;;;;;;15.73;8.57;;;28.50;32.60;;;;;;10380181;28;20053;-63
2021/03/31 11:40:54;;;;;;;16.77;9.45;;;28.50;33.10;;;;;;10377745;28;20096;-63
2021/03/31 11:45:55;;;;;;;15.45;8.02;;;29.30;32.10;;;;;;10378549;28;20138;-63
2021/03/31 11:50:56;;;;;;;14.07;8.73;;;29.60;33.30;;;;;;10378170;28;20492;-63
2021/03/31 11:55:58;;;;;;;14.85;8.95;;;28.00;32.80;;;;;;10374746;28;20135;-63
2021/03/31 12:00:59;;;;;;;14.63;8.40;;;28.20;33.00;;;;;;10377770;28;20080;-63
2021/03/31 12:06:00;;;;;;;13.93;6.90;;;27.70;35.20;;;;;;10379051;28;20057;-63
2021/03/31 12:11:02;;;;;;;13.27;7.63;;;28.60;33.00;;;;;;10373930;28;20049;-64
2021/03/31 12:16:04;;;;;;;12.25;6.95;;;29.40;32.40;;;;;;10377263;28;20049;-62
2021/03/31 12:21:06;;;;;;;13.65;7.13;;;28.30;33.00;;;;;;10377846;28;20099;-64
2021/03/31 12:26:08;;;;;;;11.93;7.95;;;29.50;32.20;;;;;;10373153;28;20112;-62
2021/03/31 12:31:09;;;;;;;14.82;7.50;;;31.30;32.80;;;;;;10376840;28;20511;-63
2021/03/31 12:36:10;;;;;;;14.93;8.00;;;30.10;31.50;;;;;;10364348;28;20049;-63
2021/03/31 12:41:11;;;;;;;14.27;6.57;;;29.70;30.80;;;;;;10373798;28;20474;-63
2021/03/31 12:46:12;;;;;;;13.50;6.85;;;29.90;33.20;;;;;;10370605;28;20053;-63
2021/03/31 12:51:18;;;;;;;16.10;7.43;;;29.30;31.90;;;;;;10375199;28;20080;-63
2021/03/31 12:56:21;;;;;;;13.20;7.57;;;28.40;31.20;;;;;;10375280;28;20045;-63
2021/03/31 13:01:26;;;;;;;15.43;6.72;;;29.30;33.10;;;;;;10376449;28;20045;-63
2021/03/31 13:06:32;;;;;;;14.23;7.85;;;30.80;31.50;;;;;;10375342;28;20501;-63
2021/03/31 13:11:54;;;;;;;15.18;7.78;;;31.00;31.60;;;;;;10290097;28;20604;-63
2021/03/31 13:17:07;;;;;;;15.98;7.45;;;30.00;31.30;;;;;;10382304;28;20057;-63
2021/03/31 13:28:13;;;;;;;14.82;8.20;;;32.40;30.40;;;;;;10292792;28;20488;-63
2021/03/31 13:33:14;;;;;;;11.93;7.40;;;31.00;30.80;;;;;;10380200;28;20056;-63
2021/03/31 13:38:36;;;;;;;14.07;7.07;;;31.30;31.00;;;;;;10383873;28;20064;-63
2021/03/31 13:43:37;;;;;;;10.45;6.15;;;31.20;31.80;;;;;;10382411;28;20168;-66
2021/03/31 13:54:18;;;;;;;14.45;6.07;;;31.60;31.30;;;;;;10324543;28;20049;-65
2021/03/31 13:59:27;;;;;;;15.88;5.63;;;29.50;31.70;;;;;;10381647;28;20046;-65
2021/03/31 14:04:28;;;;;;;15.55;6.00;;;31.80;31.20;;;;;;10382859;28;20056;-65
2021/03/31 14:09:29;;;;;;;12.00;6.00;;;28.90;32.00;;;;;;10381736;28;20478;-65
2021/03/31 14:14:50;;;;;;;9.57;5.45;;;29.70;31.80;;;;;;10326567;28;20413;-65
2021/03/31 14:20:00;;;;;;;8.68;5.10;;;31.40;31.40;;;;;;10382285;28;20099;-65
2021/03/31 14:25:06;;;;;;;8.82;5.13;;;30.40;31.70;;;;;;10381142;28;20045;-65
2021/03/31 14:30:27;;;;;;;8.90;4.82;;;31.80;31.20;;;;;;10275174;28;20195;-65
2021/03/31 14:35:49;;;;;;;11.32;4.45;;;30.30;32.00;;;;;;10290219;28;20064;-63
2021/03/31 14:41:10;;;;;;;10.38;4.30;;;30.90;32.80;;;;;;10380008;28;20059;-63
2021/03/31 14:46:31;;;;;;;8.13;3.60;;;32.50;31.60;;;;;;10378685;28;20140;-63
2021/03/31 15:02:23;;;;;;;8.88;3.40;;;30.10;32.10;;;;;;10381822;28;20045;-63
2021/03/31 15:07:24;;;;;;;8.07;3.17;;;29.10;33.90;;;;;;10379146;28;20041;-63
2021/03/31 15:12:25;;;;;;;6.80;3.00;;;30.00;32.10;;;;;;10377281;28;20065;-68
2021/03/31 15:17:47;;;;;;;7.00;3.13;;;28.80;32.90;;;;;;10362550;28;20061;-68
2021/03/31 15:28:27;;;;;;;5.78;2.83;;;27.80;33.70;;;;;;10332576;28;20047;-69
2021/03/31 15:33:49;;;;;;;7.75;3.38;;;27.00;33.30;;;;;;10270335;28;20056;-69
2021/03/31 15:38:55;;;;;;;8.32;2.67;;;27.30;35.20;;;;;;10376832;28;20057;-68
2021/03/31 15:44:01;;;;;;;4.93;2.53;;;27.80;34.80;;;;;;10378908;28;20053;-67
2021/03/31 15:49:09;;;;;;;7.32;2.80;;;27.20;34.20;;;;;;10378074;28;20049;-67
2021/03/31 15:54:16;;;;;;;8.75;2.05;;;26.70;35.40;;;;;;10353608;28;20065;-68
2021/03/31 15:59:17;;;;;;;5.22;2.58;;;26.60;34.90;;;;;;10375170;28;20506;-68
2021/03/31 16:04:26;;;;;;;10.30;3.28;;;26.00;35.90;;;;;;10378074;28;20519;-67
2021/03/31 16:09:32;;;;;;;5.57;2.67;;;26.00;36.90;;;;;;10374558;28;20053;-67
2021/03/31 16:14:38;;;;;;;6.47;1.98;;;26.00;35.20;;;;;;10379296;28;20434;-67
2021/03/31 16:19:44;;;;;;;8.80;2.35;;;25.80;36.00;;;;;;10373852;28;20049;-67
2021/03/31 16:24:50;;;;;;;5.07;2.10;;;25.90;36.10;;;;;;10373252;28;20049;-67
2021/03/31 16:30:03;;;;;;;6.28;2.15;;;25.90;36.30;;;;;;10379408;28;20061;-67
2021/03/31 16:35:10;;;;;;;7.25;1.83;;;25.60;35.10;;;;;;10371323;28;20042;-67
2021/03/31 16:40:16;;;;;;;5.72;1.20;;;25.90;35.80;;;;;;10378695;28;20412;-67
2021/03/31 16:45:23;;;;;;;4.38;1.35;;;25.80;35.00;;;;;;10376174;28;20060;-66
2021/03/31 16:50:30;;;;;;;6.90;1.98;;;25.40;35.00;;;;;;10375706;28;20061;-66
2021/03/31 16:55:36;;;;;;;6.88;2.47;;;25.20;34.90;;;;;;10376818;28;20056;-65
2021/03/31 17:00:43;;;;;;;5.35;1.30;;;25.30;35.80;;;;;;10374037;28;20041;-65
2021/03/31 17:05:49;;;;;;;9.95;1.60;;;25.30;35.40;;;;;;10373318;28;20049;-65
2021/03/31 17:10:55;;;;;;;5.65;1.25;;;25.10;35.70;;;;;;10376239;28;20207;-65
2021/03/31 17:16:01;;;;;;;8.63;2.60;;;24.80;37.10;;;;;;10372567;28;20057;-66
2021/03/31 17:21:08;;;;;;;5.10;2.83;;;24.40;37.60;;;;;;10375798;28;20685;-66
2021/03/31 17:26:14;;;;;;;7.57;1.50;;;24.10;38.90;;;;;;10370540;28;20476;-64
2021/03/31 17:31:21;;;;;;;11.00;1.80;;;23.70;40.20;;;;;;10376624;28;20060;-64
2021/03/31 17:36:27;;;;;;;4.60;2.25;;;23.40;42.20;;;;;;10378795;28;20053;-64
2021/03/31 17:41:33;;;;;;;9.60;2.50;;;23.00;43.40;;;;;;10375942;28;20061;-64
2021/03/31 17:46:42;;;;;;;14.10;2.40;;;22.70;44.00;;;;;;10371783;28;20153;-64
2021/03/31 17:51:49;;;;;;;5.40;2.10;;;22.40;44.20;;;;;;10375728;28;20675;-63
2021/03/31 17:56:55;;;;;;;6.97;3.97;;;22.10;44.70;;;;;;10373772;28;20353;-63
2021/03/31 18:02:01;;;;;;;10.25;3.38;;;21.50;48.00;;;;;;10377066;28;20056;-63
2021/03/31 18:07:07;;;;;;;12.35;2.72;;;21.10;49.60;;;;;;10380307;28;20041;-64
2021/03/31 18:12:13;;;;;;;7.85;2.00;;;20.70;52.10;;;;;;10381607;28;20049;-63
2021/03/31 18:17:20;;;;;;;10.05;2.92;;;20.40;54.10;;;;;;10383303;28;20046;-62
2021/03/31 18:22:26;;;;;;;13.32;2.88;;;20.00;54.70;;;;;;10381609;28;20804;-62
2021/03/31 18:27:34;;;;;;;9.43;3.65;;;19.70;57.80;;;;;;10377015;28;20042;-62
2021/03/31 18:32:40;;;;;;;9.57;4.38;;;19.30;57.60;;;;;;10380938;28;20045;-62
2021/03/31 18:37:48;;;;;;;13.13;3.30;;;19.00;56.60;;;;;;10382281;28;20061;-62
2021/03/31 18:48:00;;;;;;;6.93;3.07;;;18.30;63.10;;;;;;10381197;28;20052;-62
2021/03/31 18:53:07;;;;;;;12.23;3.25;;;18.10;61.30;;;;;;10381150;28;20041;-63
2021/03/31 18:58:13;;;;;;;16.20;3.60;;;17.90;61.40;;;;;;10378723;28;20045;-63
2021/03/31 19:03:21;;;;;;;9.60;3.53;;;17.60;65.30;;;;;;10380531;28;20436;-62
2021/03/31 19:08:37;;;;;;;16.98;2.95;;;17.30;66.80;;;;;;10380906;28;20048;-62
2021/03/31 19:13:44;;;;;;;10.50;2.33;;;17.10;68.60;;;;;;10378811;28;20048;-63
2021/03/31 19:18:50;;;;;;;;;;;16.80;69.50;;;;;;10380546;28;20419;-63
2021/03/31 19:23:56;;;;;;;12.07;3.30;;;16.70;69.70;;;;;;10373390;28;20275;-63
2021/03/31 19:29:02;;;;;;;13.37;2.90;;;16.50;70.30;;;;;;10378576;28;20076;-63
2021/03/31 19:34:09;;;;;;;14.63;3.80;;;16.20;71.00;;;;;;10376820;28;20053;-62
2021/03/31 19:39:15;;;;;;;10.75;3.33;;;16.10;71.50;;;;;;10377003;28;20045;-63
2021/03/31 19:44:21;;;;;;;13.57;3.47;;;15.90;73.40;;;;;;10377454;28;20075;-63
2021/03/31 19:49:28;;;;;;;9.97;3.23;;;15.70;73.60;;;;;;10377804;28;20049;-63
2021/03/31 19:54:35;;;;;;;7.70;2.83;;;15.50;75.30;;;;;;10378791;28;20049;-61
2021/03/31 19:59:41;;;;;;;13.05;4.32;;;15.30;75.80;;;;;;10376547;28;20052;-62
2021/03/31 20:04:47;;;;;;;10.67;2.60;;;15.20;76.40;;;;;;10378778;28;20057;-62
2021/03/31 20:09:53;;;;;;;10.27;3.40;;;15.00;78.50;;;;;;10378722;28;20049;-62
2021/03/31 20:14:59;;;;;;;8.00;2.97;;;14.80;79.10;;;;;;10377882;28;20056;-62
2021/03/31 20:20:12;;;;;;;13.30;3.25;;;14.70;79.50;;;;;;10373719;28;20061;-62
2021/03/31 20:25:17;;;;;;;7.18;2.65;;;14.60;80.00;;;;;;10375268;28;20396;-62
2021/03/31 20:30:25;;;;;;;9.45;2.78;;;14.40;79.70;;;;;;10377742;28;20057;-62
2021/03/31 20:35:34;;;;;;;11.45;3.20;;;14.30;80.90;;;;;;10375167;28;20082;-62
2021/03/31 20:40:41;;;;;;;9.70;2.63;;;14.10;82.90;;;;;;10374858;28;20053;-62
2021/03/31 20:45:47;;;;;;;6.18;3.22;;;14.00;83.60;;;;;;10279174;28;20169;-61
2021/03/31 20:50:53;;;;;;;9.68;3.90;;;13.90;84.10;;;;;;10067983;28;20057;-61
2021/03/31 20:55:59;;;;;;;9.18;3.70;;;13.80;85.40;;;;;;10076025;28;20393;-63
2021/03/31 21:01:05;;;;;;;6.95;3.72;;;13.70;87.70;;;;;;10068419;28;20072;-63
2021/03/31 21:06:13;;;;;;;15.13;4.15;;;13.60;87.80;;;;;;10073852;28;20465;-64
2021/03/31 21:11:19;;;;;;;6.63;3.45;;;13.50;88.30;;;;;;10061899;28;20049;-63
2021/03/31 21:16:25;;;;;;;8.98;3.35;;;13.30;90.90;;;;;;10062275;28;20515;-63
2021/03/31 21:21:31;;;;;;;8.32;4.63;;;13.20;91.00;;;;;;10072487;28;20379;-63
2021/03/31 21:26:37;;;;;;;7.60;3.92;;;13.10;91.40;;;;;;10070525;28;20049;-62
2021/03/31 21:31:43;;;;;;;11.82;4.40;;;13.10;91.90;;;;;;10050790;28;20446;-62
2021/03/31 21:36:49;;;;;;;10.13;4.65;;;13.00;93.20;;;;;;10060724;28;20276;-64
2021/03/31 21:41:56;;;;;;;12.38;5.13;;;12.90;92.70;;;;;;10056625;28;20247;-63
2021/03/31 21:47:04;;;;;;;10.07;5.03;;;12.80;93.50;;;;;;10061469;28;20541;-63
2021/03/31 21:52:08;;;;;;;12.25;4.75;;;12.70;93.20;;;;;;10071661;28;20058;-63
2021/03/31 21:57:10;;;;;;;7.03;5.18;;;12.60;94.00;;;;;;10064713;28;20049;-63
2021/03/31 22:02:12;;;;;;;8.25;4.20;;;12.50;95.00;;;;;;10067226;28;20049;-62
2021/03/31 22:07:13;;;;;;;15.50;4.88;;;12.40;96.00;;;;;;10063518;28;20059;-62
2021/03/31 22:12:14;;;;;;;8.88;4.82;;;12.30;96.10;;;;;;10072362;28;20049;-62
2021/03/31 22:17:17;;;;;;;7.85;4.07;;;12.30;96.70;;;;;;10052741;28;20046;-62
2021/03/31 22:22:19;;;;;;;10.45;4.60;;;12.10;97.10;;;;;;10059110;28;20136;-62
2021/03/31 22:27:21;;;;;;;9.20;5.40;;;12.10;98.10;;;;;;10047399;28;20461;-62
2021/03/31 22:32:22;;;;;;;12.35;5.70;;;12.00;97.80;;;;;;10052318;28;20188;-62
2021/03/31 22:37:23;;;;;;;12.38;5.47;;;11.90;98.50;;;;;;10052778;28;20377;-63
2021/03/31 22:42:25;;;;;;;11.63;5.65;;;11.80;99.80;;;;;;10045289;28;20053;-63
2021/03/31 22:47:26;;;;;;;13.35;5.80;;;11.70;99.90;;;;;;10031140;28;20098;-63
2021/03/31 22:52:28;;;;;;;12.88;5.50;;;11.60;99.90;;;;;;10034933;28;20060;-63
2021/03/31 22:57:30;;;;;;;12.05;5.97;;;11.60;99.90;;;;;;10048441;28;20045;-63
2021/03/31 23:02:31;;;;;;;12.65;5.43;;;11.40;99.90;;;;;;10053297;28;20684;-62
2021/03/31 23:07:34;;;;;;;11.13;5.72;;;11.40;99.90;;;;;;10035540;28;20049;-62
2021/03/31 23:12:35;;;;;;;10.32;5.45;;;11.20;99.90;;;;;;10037815;28;20585;-62
2021/03/31 23:17:36;;;;;;;11.75;6.22;;;11.20;99.90;;;;;;10016570;28;20226;-62
2021/03/31 23:22:38;;;;;;;9.40;5.88;;;11.10;99.90;;;;;;10039422;28;20045;-62
2021/03/31 23:27:40;;;;;;;15.82;6.50;;;11.00;99.90;;;;;;10022741;28;20436;-62
2021/03/31 23:32:42;;;;;;;11.05;5.13;;;10.90;99.90;;;;;;10244508;28;20174;-63
2021/03/31 23:37:44;;;;;;;10.23;4.78;;;10.80;99.90;;;;;;10379215;28;20136;-62
2021/03/31 23:42:45;;;;;;;14.25;5.13;;;10.70;99.90;;;;;;10376180;28;20052;-62
2021/03/31 23:47:47;;;;;;;9.82;5.43;;;10.70;99.90;;;;;;10374439;28;20053;-62
2021/03/31 23:52:49;;;;;;;10.88;5.53;;;10.60;99.90;;;;;;10369747;28;20064;-62
2021/03/31 23:57:51;;;;;;;8.60;4.85;;;10.40;99.90;;;;;;10372989;28;20054;-62
